• Join FlightAware (Why Join?)
  • Login
  • US Flag 
09:09AM EDT


 

Airport Tracker/Info


-or-


 

Live Flight TrackerFlight Track Log ✈ SWA561 ✈ 17-Apr-2013 ✈ KLAX - KTUS

Flight Track Log - Related Links

Times and Time Zones

All times are in EDT time to prevent confusion due to time zone crossing. See the SWA561 flight status page for this flight to view local times or setup timezone preferences in your user account.

Time Position Orientation Groundspeed Altitude Reporting Facility
EDT Latitude Longitude Course Direction KTS MPH feet Rate Location/Type
10:08PM 33.9061 -118.4739 242° Southwest 204 235 2,900  Level Los Angeles Center
10:09PM 33.8414 -118.5031 201° Southwest 260 299 5,400 2,700 Climbing Los Angeles Center
10:10PM 33.7636 -118.5128 186° South 282 325 8,500 2,700 Climbing Los Angeles Center
10:11PM 33.6878 -118.4819 161° South 316 364 11,000 2,160 Climbing Los Angeles Center
10:12PM 33.6508 -118.3639 111° Southeast 325 374 13,000 960 Climbing Los Angeles Center
10:13PM 33.6436 -118.2606 95° East 323 372 13,000 240 Level Los Angeles Center
10:14PM 33.6444 -118.1581 89° East 316 364 13,500 1,620 Climbing Los Angeles Center
10:15PM 33.6442 -118.0364 90° East 367 422 16,400 2,880 Climbing Los Angeles Center
10:16PM 33.6444 -117.9100 90° East 380 437 19,500 2,760 Climbing Los Angeles Center
10:18PM 33.6442 -117.7756 90° East 397 457 22,200 2,580 Climbing Los Angeles Center
10:19PM 33.6422 -117.6006 91° East 431 496 24,900 2,220 Climbing Los Angeles Center
10:20PM 33.6242 -117.4475 98° East 457 526 26,800 2,040 Climbing Los Angeles Center
10:21PM 33.6044 -117.2894 98° East 473 544 29,100 1,920 Climbing Los Angeles Center
10:22PM 33.5831 -117.1225 99° East 487 560 30,800 1,500 Climbing Los Angeles Center
10:23PM 33.5608 -116.9547 99° East 505 581 32,300 1,380 Climbing Los Angeles Center
10:24PM 33.5397 -116.7803 98° East 524 603 33,700 1,320 Climbing Los Angeles Center
10:25PM 33.5178 -116.6031 98° East 534 615 35,100 1,440 Climbing Los Angeles Center
10:26PM 33.4953 -116.4256 99° East 536 617 36,700 1,380 Climbing Los Angeles Center
10:27PM 33.4728 -116.2506 99° East 531 611 38,000 1,080 Climbing Los Angeles Center
10:28PM 33.4453 -116.0356 99° East 540 621 39,000 480 Climbing Los Angeles Center
10:29PM 33.4253 -115.8553 98° East 545 627 39,000  Level Los Angeles Center
10:30PM 33.4264 -115.6714 90° East 550 633 39,000  Level Los Angeles Center
10:31PM 33.4253 -115.4889 90° East 548 631 39,000  Level Los Angeles Center
10:32PM 33.4119 -115.3072 95° East 548 631 39,000  Level Los Angeles Center
10:33PM 33.3806 -115.1272 102° East 552 635 39,000  Level Los Angeles Center
10:34PM 33.3494 -114.9475 102° East 553 636 39,000  Level Los Angeles Center
10:35PM 33.3125 -114.7317 102° East 550 633 39,000  Level Los Angeles Center
10:36PM 33.2856 -114.5489 100° East 558 642 39,000  Level Los Angeles Center
10:37PM 33.2544 -114.3694 102° East 555 639 39,000  Level Los Angeles Center
10:38PM 33.2264 -114.1886 100° East 555 639 39,000  Level Los Angeles Center
10:39PM 33.1917 -114.0092 103° East 553 636 39,000  Level Los Angeles Center
10:40PM 33.1617 -113.8100 100° East 555 639 39,000  Level Albuquerque Center
10:41PM 33.1292 -113.6289 102° East 555 639 39,000  Level Albuquerque Center
10:42PM 33.0969 -113.4472 102° East 558 642 39,000 -300 Level Albuquerque Center
10:43PM 33.0653 -113.2636 102° East 561 646 38,500 -720 Descending Albuquerque Center
10:44PM 33.0319 -113.0817 102° East 561 646 37,600 -660 Descending Albuquerque Center
10:45PM 32.9981 -112.8983 102° East 561 646 37,200 -660 Descending Albuquerque Center
10:46PM 32.9553 -112.6739 103° East 569 655 36,300 -900 Descending Albuquerque Center
10:47PM 32.8900 -112.4989 114° Southeast 573 659 35,400 -1,500 Descending Albuquerque Center
10:48PM 32.8236 -112.3267 115° Southeast 572 658 33,300 -2,100 Descending Albuquerque Center
10:49PM 32.7603 -112.1628 115° Southeast 565 650 31,200 -2,520 Descending Albuquerque Center
10:50PM 32.6967 -112.0011 115° Southeast 552 635 28,200 -3,180 Descending Albuquerque Center
10:51PM 32.6356 -111.8406 114° Southeast 541 623 24,800 -3,660 Descending Albuquerque Center
10:52PM 32.6017 -111.7575 116° Southeast 529 609 23,000 -3,240 Descending Albuquerque Center
10:53PM 32.5775 -111.6892 113° Southeast 520 598 21,500 -3,300 Descending Albuquerque Center
10:53PM 32.5333 -111.6217 128° Southeast 483 556 19,700 -3,180 Descending Albuquerque Center
10:54PM 32.4958 -111.5742 133° Southeast 472 543 18,300 -3,060 Descending Albuquerque Center
10:54PM 32.4453 -111.5186 137° Southeast 447 514 16,600 -3,600 Descending Albuquerque Center
10:55PM 32.3928 -111.4542 134° Southeast 440 506 14,600 -2,940 Descending Albuquerque Center
10:55PM 32.3611 -111.4250 142° Southeast 420 483 13,700 -1,980 Descending Albuquerque Center
10:56PM 32.3119 -111.3742 139° Southeast 395 455 12,600 -1,680 Descending Albuquerque Center
10:56PM 32.2842 -111.3472 141° Southeast 365 420 12,000 -1,680 Descending Albuquerque Center
10:57PM 32.2417 -111.3031 139° Southeast 347 399 10,900 -1,500 Descending Albuquerque Center
10:57PM 32.2039 -111.2653 140° Southeast 311 358 10,200 -1,320 Descending Albuquerque Center
10:58PM 32.1814 -111.2386 135° Southeast 307 353 9,600 -1,140 Descending Albuquerque Center
10:58PM 32.1531 -111.2008 132° Southeast 270 311 9,100 -1,200 Descending Albuquerque Center
10:59PM 32.1369 -111.1744 126° Southeast 264 304 8,400 -1,320 Descending Albuquerque Center
10:59PM 32.1142 -111.1433 131° Southeast 253 291 7,900 -1,140 Descending Albuquerque Center
11:00PM 32.0944 -111.1094 124° Southeast 256 295 7,300 -1,140 Descending Albuquerque Center
11:00PM 32.0725 -111.0842 136° Southeast 228 262 6,800 -1,380 Descending Albuquerque Center
11:01PM 32.0567 -111.0511 119° Southeast 241 277 5,900 -1,560 Descending Albuquerque Center
11:01PM 32.0458 -111.0133 109° East 219 252 5,100 -1,020 Descending Albuquerque Center
11:02PM 32.0439 -110.9894 95° East 214 246 4,900 -420 Descending Albuquerque Center
11:02PM 32.0361 -110.9531 104° East 185 213 4,700 -240 Descending Albuquerque Center
11:03PM 32.0383 -110.9206 85° East 205 236 4,700 -600 Level Albuquerque Center
11:03PM 32.0447 -110.8978 72° East 165 190 4,100 -960 Descending Albuquerque Center
11:04PM 32.0786 -110.8961 North 145 167 3,300 -840 Descending Albuquerque Center